createdAt,value
2019-05-12T00:01:19.353Z,4.20
2019-05-12T00:03:48.509Z,4.30
2019-05-12T00:06:17.674Z,4.50
2019-05-12T00:08:45.001Z,4.40
2019-05-12T00:11:12.368Z,4.30
2019-05-12T00:13:39.937Z,4.20
2019-05-12T00:16:08.773Z,4.20
2019-05-12T00:18:37.805Z,4.30
2019-05-12T00:21:05.204Z,4.40
2019-05-12T00:23:35.741Z,4.40
2019-05-12T00:26:03.214Z,4.40
2019-05-12T00:28:30.774Z,4.30
2019-05-12T00:30:58.205Z,4.20
2019-05-12T00:33:27.995Z,4.10
2019-05-12T00:35:54.943Z,4.00
2019-05-12T00:38:22.161Z,4.10
2019-05-12T00:40:49.454Z,4.20
2019-05-12T00:43:18.866Z,4.20
2019-05-12T00:45:48.094Z,4.20
2019-05-12T00:48:15.202Z,4.30
2019-05-12T00:50:42.468Z,4.40
2019-05-12T00:53:09.700Z,4.30
2019-05-12T00:55:38.105Z,4.30
2019-05-12T00:58:07.958Z,4.20
2019-05-12T01:00:35.220Z,4.20
2019-05-12T01:03:02.488Z,4.30
2019-05-12T01:05:30.114Z,4.30
2019-05-12T01:07:58.332Z,4.30
2019-05-12T01:10:28.307Z,4.40
2019-05-12T01:12:57.853Z,4.50
2019-05-12T01:15:24.497Z,4.40
2019-05-12T01:17:51.740Z,4.30
2019-05-12T01:20:19.338Z,4.30
2019-05-12T01:22:50.365Z,4.20
2019-05-12T01:25:17.652Z,4.10
2019-05-12T01:27:44.976Z,4.00
2019-05-12T01:30:12.585Z,4.00
2019-05-12T01:32:40.112Z,4.20
2019-05-12T01:35:08.769Z,4.20
2019-05-12T01:37:38.273Z,4.30
2019-05-12T01:40:08.544Z,4.30
2019-05-12T01:42:37.980Z,4.30
2019-05-12T01:45:04.961Z,4.20
2019-05-12T01:47:32.308Z,4.10
2019-05-12T01:49:59.878Z,4.20
2019-05-12T01:52:28.559Z,4.10
2019-05-12T01:54:58.826Z,4.10
2019-05-12T01:57:25.689Z,4.10
2019-05-12T01:59:52.924Z,3.90
2019-05-12T02:02:20.198Z,3.70
2019-05-12T02:05:08.267Z,3.50
2019-05-12T02:07:52.154Z,3.50
2019-05-12T02:10:19.822Z,3.40
2019-05-12T02:12:49.141Z,3.30
2019-05-12T02:15:18.337Z,3.30
2019-05-12T02:17:47.978Z,3.30
2019-05-12T02:20:15.350Z,3.30
2019-05-12T02:22:42.653Z,3.20
2019-05-12T02:25:10.187Z,3.30
2019-05-12T02:27:38.316Z,3.20
2019-05-12T02:30:09.800Z,3.10
2019-05-12T02:32:48.178Z,3.10
2019-05-12T02:35:06.742Z,3.10
2019-05-12T02:37:35.828Z,3.00
2019-05-12T02:40:04.980Z,3.00
2019-05-12T02:42:34.851Z,3.10
2019-05-12T02:45:01.485Z,3.00
2019-05-12T02:47:28.832Z,3.10
2019-05-12T02:49:56.153Z,3.20
2019-05-12T02:52:24.983Z,3.10
2019-05-12T02:54:59.611Z,3.00
2019-05-12T02:57:25.523Z,2.90
2019-05-12T02:59:54.083Z,2.80
2019-05-12T03:02:24.650Z,3.00
2019-05-12T03:04:54.762Z,2.90
2019-05-12T03:07:25.644Z,2.90
2019-05-12T03:09:55.114Z,2.80
2019-05-12T03:12:25.575Z,2.90
2019-05-12T03:14:54.265Z,2.80
2019-05-12T03:17:24.915Z,2.80
2019-05-12T03:19:50.772Z,2.70
2019-05-12T03:22:18.169Z,2.80
2019-05-12T03:24:45.685Z,2.70
2019-05-12T03:27:14.586Z,2.70
2019-05-12T03:29:44.870Z,2.60
2019-05-12T03:32:17.131Z,2.70
2019-05-12T03:34:40.849Z,2.80
2019-05-12T03:37:08.760Z,2.80
2019-05-12T03:39:36.261Z,2.70
2019-05-12T03:42:05.186Z,2.60
2019-05-12T03:44:35.270Z,2.60
2019-05-12T03:47:04.813Z,2.50
2019-05-12T03:49:31.130Z,2.70
2019-05-12T03:51:58.486Z,2.80
2019-05-12T03:54:25.713Z,2.60
2019-05-12T03:56:55.685Z,2.50
2019-05-12T03:59:25.334Z,2.60
2019-05-12T04:01:54.985Z,2.50
2019-05-12T04:04:20.736Z,2.40
2019-05-12T04:06:48.043Z,2.40
2019-05-12T04:09:15.785Z,2.50
2019-05-12T04:11:44.450Z,2.50
2019-05-12T04:14:14.819Z,2.60
2019-05-12T04:16:41.005Z,2.60
2019-05-12T04:19:08.258Z,2.60
2019-05-12T04:21:35.715Z,2.50
2019-05-12T04:24:05.400Z,2.50
2019-05-12T04:26:35.863Z,2.50
2019-05-12T04:29:04.843Z,2.50
2019-05-12T04:31:30.737Z,2.30
2019-05-12T04:33:57.985Z,2.20
2019-05-12T04:36:25.553Z,2.20
2019-05-12T04:38:55.643Z,2.40
2019-05-12T04:41:25.613Z,2.50
2019-05-12T04:43:54.905Z,2.70
2019-05-12T04:46:21.136Z,2.70
2019-05-12T04:48:48.427Z,2.90
2019-05-12T04:51:15.946Z,3.00
2019-05-12T04:53:44.903Z,3.00
2019-05-12T04:56:19.277Z,3.00
2019-05-12T04:58:44.744Z,3.10
2019-05-12T05:01:10.988Z,3.00
2019-05-12T05:03:38.627Z,3.10
2019-05-12T05:06:05.952Z,3.20
2019-05-12T05:08:34.917Z,3.80
2019-05-12T05:11:04.072Z,4.60
2019-05-12T05:13:36.623Z,5.30
2019-05-12T05:16:01.157Z,5.80
2019-05-12T05:18:29.043Z,5.20
2019-05-12T05:20:56.288Z,4.50
2019-05-12T05:23:24.267Z,4.20
2019-05-12T05:25:53.818Z,4.30
2019-05-12T05:28:23.509Z,4.40
2019-05-12T05:30:50.797Z,4.50
2019-05-12T05:33:19.928Z,4.80
2019-05-12T05:35:47.220Z,5.50
2019-05-12T05:38:20.569Z,6.10
2019-05-12T05:40:44.355Z,6.70
2019-05-12T05:43:12.837Z,7.20
2019-05-12T05:45:40.810Z,7.60
2019-05-12T05:48:10.226Z,7.40
2019-05-12T05:50:37.232Z,7.40
2019-05-12T05:53:04.651Z,7.80
2019-05-12T05:55:34.552Z,7.80
2019-05-12T05:58:07.862Z,7.90
2019-05-12T06:00:31.224Z,7.90
2019-05-12T06:02:58.471Z,7.60
2019-05-12T06:05:30.720Z,7.30
2019-05-12T06:07:54.926Z,7.10
2019-05-12T06:10:34.856Z,6.90
2019-05-12T06:12:54.126Z,6.80
2019-05-12T06:15:23.421Z,6.70
2019-05-12T06:17:50.168Z,6.60
2019-05-12T06:20:17.393Z,6.50
2019-05-12T06:22:48.704Z,6.50
2019-05-12T06:25:16.117Z,6.40
2019-05-12T06:27:44.381Z,6.40
2019-05-12T06:30:14.562Z,6.40
2019-05-12T06:32:41.206Z,6.40
2019-05-12T06:35:10.422Z,6.50
2019-05-12T06:37:37.648Z,6.50
2019-05-12T06:40:04.933Z,6.70
2019-05-12T06:42:34.177Z,6.70
2019-05-12T06:45:03.277Z,6.80
2019-05-12T06:47:30.768Z,6.90
2019-05-12T06:49:58.354Z,7.00
2019-05-12T06:52:25.985Z,8.20
2019-05-12T06:54:56.569Z,7.70
2019-05-12T06:57:27.962Z,7.30
2019-05-12T06:59:53.086Z,7.00
2019-05-12T07:02:20.942Z,6.90
2019-05-12T07:04:56.297Z,6.90
2019-05-12T07:07:17.319Z,7.00
2019-05-12T07:09:54.135Z,7.20
2019-05-12T07:12:13.880Z,7.40
2019-05-12T07:14:43.407Z,7.50
2019-05-12T07:17:25.343Z,7.40
2019-05-12T07:19:54.669Z,7.40
2019-05-12T07:22:23.364Z,7.40
2019-05-12T07:24:52.798Z,7.50
2019-05-12T07:27:33.744Z,7.60
2019-05-12T07:29:49.606Z,7.60
2019-05-12T07:32:21.730Z,7.60
2019-05-12T07:34:46.863Z,7.60
2019-05-12T07:37:15.309Z,7.60
2019-05-12T07:39:47.857Z,7.60
2019-05-12T07:42:13.350Z,7.50
2019-05-12T07:44:44.033Z,7.50
2019-05-12T07:47:13.654Z,7.60
2019-05-12T07:49:40.544Z,7.60
2019-05-12T07:52:07.768Z,7.70
2019-05-12T07:54:39.332Z,7.70
2019-05-12T07:57:11.816Z,7.80
2019-05-12T07:59:39.061Z,7.80
2019-05-12T08:02:03.923Z,7.90
2019-05-12T08:04:39.577Z,7.80
2019-05-12T08:07:00.588Z,7.80
2019-05-12T08:09:32.245Z,7.70
2019-05-12T08:11:57.023Z,7.90
2019-05-12T08:14:29.217Z,7.90
2019-05-12T08:16:54.283Z,8.00
2019-05-12T08:19:26.572Z,8.10
2019-05-12T08:21:50.903Z,8.30
2019-05-12T08:24:18.221Z,8.20
2019-05-12T08:26:49.676Z,8.30
2019-05-12T08:29:16.981Z,8.10
2019-05-12T08:31:44.158Z,8.40
2019-05-12T08:34:13.532Z,8.60
2019-05-12T08:36:45.075Z,8.60
2019-05-12T08:39:11.965Z,8.80
2019-05-12T08:41:39.796Z,8.90
2019-05-12T08:44:07.021Z,8.60
2019-05-12T08:46:34.542Z,8.60
2019-05-12T08:49:04.813Z,8.60
2019-05-12T08:51:31.053Z,8.60
2019-05-12T08:54:02.448Z,8.80
2019-05-12T08:56:27.572Z,8.80
2019-05-12T08:58:54.813Z,8.90
2019-05-12T09:01:26.665Z,9.10
2019-05-12T09:03:53.238Z,9.30
2019-05-12T09:06:20.440Z,9.30
2019-05-12T09:08:49.329Z,9.30
2019-05-12T09:11:17.168Z,9.30
2019-05-12T09:13:44.753Z,8.90
2019-05-12T09:16:13.794Z,9.20
2019-05-12T09:18:43.292Z,9.30
2019-05-12T09:21:10.737Z,9.10
2019-05-12T09:23:41.071Z,9.30
2019-05-12T09:26:07.127Z,9.30
2019-05-12T09:28:46.476Z,9.50
2019-05-12T09:31:03.833Z,9.60
2019-05-12T09:33:34.107Z,9.80
2019-05-12T09:36:00.515Z,9.90
2019-05-12T09:38:27.732Z,10.00
2019-05-12T09:41:00.963Z,10.30
2019-05-12T09:43:24.392Z,10.40
2019-05-12T09:45:55.800Z,10.30
2019-05-12T09:48:20.809Z,10.60
2019-05-12T09:50:51.476Z,10.50
2019-05-12T09:53:17.725Z,10.50
2019-05-12T09:55:44.944Z,10.40
2019-05-12T09:58:16.228Z,10.50
2019-05-12T10:00:43.355Z,10.60
2019-05-12T10:03:10.510Z,11.10
2019-05-12T10:05:41.130Z,11.40
2019-05-12T10:08:07.025Z,11.40
2019-05-12T10:10:38.795Z,11.70
2019-05-12T10:13:04.781Z,12.30
2019-05-12T10:15:33.181Z,12.10
2019-05-12T10:18:08.929Z,11.40
2019-05-12T10:20:37.346Z,11.30
2019-05-12T10:22:58.996Z,11.60
2019-05-12T10:25:28.538Z,11.70
2019-05-12T10:27:55.437Z,12.40
2019-05-12T10:30:23.501Z,13.00
2019-05-12T10:32:51.173Z,12.70
2019-05-12T10:35:21.523Z,12.30
2019-05-12T10:37:47.608Z,12.70
2019-05-12T10:40:15.058Z,12.90
2019-05-12T10:42:46.111Z,12.70
2019-05-12T10:45:18.974Z,12.20
2019-05-12T10:47:41.088Z,12.10
2019-05-12T10:50:09.464Z,11.80
2019-05-12T10:52:38.917Z,11.80
2019-05-12T10:55:06.493Z,11.80
2019-05-12T10:57:34.309Z,11.50
2019-05-12T11:00:03.978Z,11.30
2019-05-12T11:02:30.993Z,11.30
2019-05-12T11:04:58.217Z,11.70
2019-05-12T11:07:28.045Z,13.50
2019-05-12T11:09:54.659Z,13.20
2019-05-12T11:12:25.203Z,13.20
2019-05-12T11:14:51.106Z,15.40
2019-05-12T11:17:19.098Z,15.90
2019-05-12T11:19:50.040Z,15.10
2019-05-12T11:22:15.895Z,15.00
2019-05-12T11:24:44.395Z,16.40
2019-05-12T11:27:13.408Z,16.70
2019-05-12T11:29:46.294Z,17.40
2019-05-12T11:32:09.947Z,17.80
2019-05-12T11:34:37.564Z,16.70
2019-05-12T11:37:05.139Z,16.90
2019-05-12T11:39:38.803Z,15.80
2019-05-12T11:42:03.701Z,14.20
2019-05-12T11:44:31.101Z,14.40
2019-05-12T11:46:58.613Z,16.40
2019-05-12T11:49:26.643Z,16.00
2019-05-12T11:51:55.301Z,14.40
2019-05-12T11:54:24.234Z,14.50
2019-05-12T11:56:53.530Z,15.50
2019-05-12T11:59:23.592Z,14.90
2019-05-12T12:01:53.110Z,13.90
2019-05-12T12:04:19.517Z,13.40
2019-05-12T12:06:47.070Z,13.80
2019-05-12T12:09:17.781Z,13.10
2019-05-12T12:11:43.690Z,13.00
2019-05-12T12:14:11.029Z,13.10
2019-05-12T12:16:41.997Z,15.20
2019-05-12T12:19:07.572Z,16.50
2019-05-12T12:21:35.178Z,17.00
2019-05-12T12:24:03.952Z,16.90
2019-05-12T12:26:34.191Z,16.60
2019-05-12T12:29:00.684Z,15.60
2019-05-12T12:31:37.257Z,14.00
2019-05-12T12:33:59.741Z,14.50
2019-05-12T12:36:27.268Z,16.40
2019-05-12T12:38:54.540Z,17.50
2019-05-12T12:41:23.669Z,18.10
2019-05-12T12:43:50.986Z,17.90
2019-05-12T12:46:24.360Z,16.40
2019-05-12T12:48:51.625Z,15.40
2019-05-12T12:51:18.758Z,14.40
2019-05-12T12:53:46.214Z,15.40
2019-05-12T12:56:16.120Z,16.30
2019-05-12T12:58:43.967Z,16.40
2019-05-12T13:01:15.748Z,16.30
2019-05-12T13:03:40.725Z,16.20
2019-05-12T13:06:07.969Z,16.30
2019-05-12T13:08:35.501Z,16.00
2019-05-12T13:11:04.380Z,16.50
2019-05-12T13:13:32.053Z,17.20
2019-05-12T13:15:59.577Z,17.20
2019-05-12T13:18:33.075Z,17.10
2019-05-12T13:20:58.027Z,16.10
2019-05-12T13:23:36.921Z,15.40
2019-05-12T13:25:54.902Z,15.50
2019-05-12T13:28:23.549Z,15.40
2019-05-12T13:30:53.996Z,15.40
2019-05-12T13:33:20.580Z,15.00
2019-05-12T13:35:50.246Z,14.50
2019-05-12T13:38:17.545Z,14.80
2019-05-12T13:40:44.861Z,15.10
2019-05-12T13:43:15.611Z,14.70
2019-05-12T13:45:43.839Z,14.60
2019-05-12T13:48:15.926Z,14.50
2019-05-12T13:50:39.840Z,14.10
2019-05-12T13:53:10.000Z,14.00
2019-05-12T13:55:39.390Z,13.60
2019-05-12T13:58:05.415Z,14.00
2019-05-12T14:00:33.636Z,13.70
2019-05-12T14:03:07.154Z,13.00
2019-05-12T14:05:30.230Z,12.80
2019-05-12T14:07:57.557Z,13.30
2019-05-12T14:10:24.927Z,13.70
2019-05-12T14:12:54.407Z,13.70
2019-05-12T14:15:24.627Z,14.00
2019-05-12T14:17:51.048Z,15.00
2019-05-12T14:20:20.450Z,15.60
2019-05-12T14:22:47.792Z,15.10
2019-05-12T14:25:15.610Z,14.40
2019-05-12T14:27:44.605Z,15.10
2019-05-12T14:30:14.497Z,15.70
2019-05-12T14:32:41.308Z,16.20
2019-05-12T14:35:09.384Z,16.40
2019-05-12T14:37:40.301Z,16.50
2019-05-12T14:40:06.002Z,16.20
2019-05-12T14:42:38.140Z,16.40
2019-05-12T14:45:04.550Z,16.40
2019-05-12T14:47:33.849Z,16.40
2019-05-12T14:50:03.771Z,16.30
2019-05-12T14:52:30.506Z,16.10
2019-05-12T14:54:57.753Z,16.10
2019-05-12T14:57:29.316Z,15.90
2019-05-12T14:59:54.445Z,15.40
2019-05-12T15:02:25.527Z,15.10
2019-05-12T15:04:51.342Z,15.80
2019-05-12T15:07:18.865Z,15.70
2019-05-12T15:09:46.149Z,15.90
2019-05-12T15:12:14.433Z,15.90
2019-05-12T15:14:43.798Z,15.80
2019-05-12T15:17:13.862Z,15.60
2019-05-12T15:19:40.929Z,16.10
2019-05-12T15:22:11.828Z,16.20
2019-05-12T15:24:37.667Z,16.10
2019-05-12T15:27:04.913Z,15.30
2019-05-12T15:29:33.836Z,14.50
2019-05-12T15:32:03.732Z,14.50
2019-05-12T15:34:30.712Z,15.30
2019-05-12T15:37:00.201Z,15.10
2019-05-12T15:39:27.423Z,15.00
2019-05-12T15:41:56.429Z,14.10
2019-05-12T15:44:31.491Z,14.40
2019-05-12T15:46:53.555Z,14.70
2019-05-12T15:49:21.369Z,14.40
2019-05-12T15:51:54.171Z,14.80
2019-05-12T15:54:18.175Z,15.00
2019-05-12T15:56:45.458Z,15.20
2019-05-12T15:59:14.554Z,15.80
2019-05-12T16:01:43.950Z,16.10
2019-05-12T16:04:12.027Z,14.80
2019-05-12T16:06:44.767Z,13.70
2019-05-12T16:09:09.740Z,13.30
2019-05-12T16:11:37.034Z,13.20
2019-05-12T16:14:04.668Z,13.00
2019-05-12T16:16:34.031Z,12.70
2019-05-12T16:19:01.282Z,12.70
2019-05-12T16:21:28.624Z,12.60
2019-05-12T16:23:56.643Z,12.40
2019-05-12T16:26:24.352Z,12.20
2019-05-12T16:28:54.018Z,12.30
2019-05-12T16:31:23.106Z,12.30
2019-05-12T16:33:52.947Z,12.40
2019-05-12T16:36:20.161Z,13.10
2019-05-12T16:38:50.201Z,13.80
2019-05-12T16:41:19.834Z,13.90
2019-05-12T16:43:46.962Z,14.50
2019-05-12T16:46:14.623Z,14.90
2019-05-12T16:48:47.340Z,14.40
2019-05-12T16:51:13.728Z,14.00
2019-05-12T16:53:43.553Z,13.60
2019-05-12T16:56:11.338Z,13.40
2019-05-12T16:58:38.579Z,13.20
2019-05-12T17:01:06.192Z,12.90
2019-05-12T17:03:34.274Z,12.80
2019-05-12T17:06:03.545Z,12.80
2019-05-12T17:08:30.972Z,12.80
2019-05-12T17:11:15.117Z,12.70
2019-05-12T17:13:27.480Z,12.70
2019-05-12T17:15:59.864Z,12.60
2019-05-12T17:18:24.748Z,12.60
2019-05-12T17:20:54.323Z,12.50
2019-05-12T17:23:21.540Z,12.50
2019-05-12T17:25:49.633Z,12.70
2019-05-12T17:28:16.905Z,12.70
2019-05-12T17:30:44.200Z,12.70
2019-05-12T17:33:13.437Z,12.50
2019-05-12T17:35:40.883Z,12.40
2019-05-12T17:38:11.703Z,12.40
2019-05-12T17:40:37.553Z,12.40
2019-05-12T17:43:06.842Z,12.40
2019-05-12T17:45:34.112Z,12.20
2019-05-12T17:48:05.909Z,12.20
2019-05-12T17:50:30.895Z,12.20
2019-05-12T17:53:00.479Z,12.20
2019-05-12T17:55:27.345Z,12.10
2019-05-12T17:57:56.340Z,12.10
2019-05-12T18:00:24.556Z,11.90
2019-05-12T18:02:54.903Z,11.90
2019-05-12T18:05:23.254Z,11.80
2019-05-12T18:07:52.478Z,11.70
2019-05-12T18:10:19.365Z,11.70
2019-05-12T18:12:46.772Z,11.70
2019-05-12T18:15:15.475Z,11.60
2019-05-12T18:17:45.202Z,11.50
2019-05-12T18:20:14.410Z,11.50
2019-05-12T18:22:45.073Z,11.50
2019-05-12T18:25:11.229Z,11.50
2019-05-12T18:27:44.666Z,11.40
2019-05-12T18:30:08.312Z,11.30
2019-05-12T18:32:35.577Z,11.20
2019-05-12T18:35:04.217Z,11.10
2019-05-12T18:37:34.305Z,11.00
2019-05-12T18:40:03.953Z,10.90
2019-05-12T18:42:30.798Z,10.80
2019-05-12T18:45:04.642Z,10.70
2019-05-12T18:47:31.934Z,10.60
2019-05-12T18:49:56.381Z,10.70
2019-05-12T18:52:23.792Z,10.60
2019-05-12T18:54:57.037Z,10.50
2019-05-12T18:57:23.837Z,10.50
2019-05-12T18:59:55.054Z,10.50
2019-05-12T19:02:23.549Z,10.30
2019-05-12T19:04:50.209Z,10.30
2019-05-12T19:07:17.679Z,10.20
2019-05-12T19:09:47.263Z,10.10
2019-05-12T19:12:19.497Z,10.10
2019-05-12T19:14:44.057Z,10.00
2019-05-12T19:17:13.958Z,9.90
2019-05-12T19:19:40.970Z,9.90
2019-05-12T19:22:09.673Z,9.90
2019-05-12T19:24:37.435Z,9.80
2019-05-12T19:27:04.796Z,9.90
2019-05-12T19:29:38.648Z,9.80
2019-05-12T19:32:04.331Z,9.80
2019-05-12T19:34:31.825Z,9.70
2019-05-12T19:36:59.840Z,9.70
2019-05-12T19:39:27.398Z,9.70
2019-05-12T19:41:54.841Z,9.70
2019-05-12T19:44:26.630Z,9.60
2019-05-12T19:46:51.403Z,9.50
2019-05-12T19:49:20.117Z,9.50
2019-05-12T19:51:47.960Z,9.50
2019-05-12T19:54:19.407Z,9.40
2019-05-12T19:56:44.464Z,9.40
2019-05-12T19:59:14.489Z,9.40
2019-05-12T20:01:41.124Z,9.30
2019-05-12T20:04:08.556Z,9.30
2019-05-12T20:06:35.809Z,9.20
2019-05-12T20:09:08.241Z,9.20
2019-05-12T20:11:34.733Z,9.00
2019-05-12T20:14:04.217Z,8.70
2019-05-12T20:16:31.507Z,8.70
2019-05-12T20:18:59.084Z,8.60
2019-05-12T20:21:28.286Z,8.50
2019-05-12T20:23:55.512Z,8.40
2019-05-12T20:26:23.730Z,8.40
2019-05-12T20:28:53.415Z,8.40
2019-05-12T20:31:23.609Z,8.40
2019-05-12T20:33:50.181Z,8.30
2019-05-12T20:36:20.610Z,8.20
2019-05-12T20:38:47.276Z,8.00
2019-05-12T20:41:21.899Z,7.90
2019-05-12T20:43:44.487Z,7.90
2019-05-12T20:46:15.820Z,7.80
2019-05-12T20:48:41.197Z,7.60
2019-05-12T20:51:13.695Z,7.50
2019-05-12T20:53:37.669Z,7.20
2019-05-12T20:56:05.186Z,7.10
2019-05-12T20:58:35.191Z,7.20
2019-05-12T21:01:02.873Z,7.20
2019-05-12T21:03:30.889Z,7.20
2019-05-12T21:06:01.564Z,7.20
2019-05-12T21:08:27.463Z,7.00
2019-05-12T21:10:54.702Z,6.90
2019-05-12T21:13:27.236Z,6.90
2019-05-12T21:15:53.727Z,6.90
2019-05-12T21:18:20.894Z,6.90
2019-05-12T21:20:52.161Z,6.90
2019-05-12T21:23:18.033Z,6.80
2019-05-12T21:25:52.496Z,6.90
2019-05-12T21:28:14.933Z,6.80
2019-05-12T21:30:48.251Z,6.70
2019-05-12T21:33:14.679Z,6.70
2019-05-12T21:35:45.745Z,6.70
2019-05-12T21:38:10.753Z,6.70
2019-05-12T21:40:38.018Z,6.50
2019-05-12T21:43:05.780Z,6.40
2019-05-12T21:45:33.859Z,6.20
2019-05-12T21:48:03.500Z,6.10
2019-05-12T21:50:32.827Z,6.10
2019-05-12T21:53:00.078Z,6.10
2019-05-12T21:55:27.443Z,6.00
2019-05-12T21:57:55.074Z,5.90
2019-05-12T22:00:29.381Z,6.00
2019-05-12T22:03:02.524Z,6.20
2019-05-12T22:05:47.227Z,6.30
2019-05-12T22:07:55.248Z,6.40
2019-05-12T22:10:26.797Z,6.50
2019-05-12T22:12:53.342Z,6.60
2019-05-12T22:15:21.622Z,6.60
2019-05-12T22:18:04.196Z,6.70
2019-05-12T22:20:31.738Z,6.70
2019-05-12T22:23:00.550Z,6.70
2019-05-12T22:25:28.645Z,6.80
2019-05-12T22:27:59.138Z,6.90
2019-05-12T22:30:26.026Z,6.90
2019-05-12T22:32:54.123Z,6.90
2019-05-12T22:35:24.200Z,6.90
2019-05-12T22:37:53.413Z,6.80
2019-05-12T22:40:20.344Z,6.60
2019-05-12T22:42:50.676Z,6.40
2019-05-12T22:45:17.038Z,6.20
2019-05-12T22:47:49.242Z,6.20
2019-05-12T22:50:13.733Z,6.30
2019-05-12T22:52:45.213Z,6.30
2019-05-12T22:55:10.632Z,6.40
2019-05-12T22:57:40.135Z,6.30
2019-05-12T23:00:08.232Z,6.30
2019-05-12T23:02:35.569Z,6.00
2019-05-12T23:05:03.571Z,5.80
2019-05-12T23:07:33.144Z,5.60
2019-05-12T23:10:05.964Z,5.50
2019-05-12T23:12:29.889Z,5.60
2019-05-12T23:15:03.074Z,5.60
2019-05-12T23:17:26.580Z,5.60
2019-05-12T23:19:55.795Z,5.30
2019-05-12T23:22:23.649Z,5.20
2019-05-12T23:24:51.193Z,5.20
2019-05-12T23:27:23.902Z,5.10
2019-05-12T23:29:47.903Z,5.10
2019-05-12T23:32:15.416Z,5.10
2019-05-12T23:34:44.912Z,5.20
2019-05-12T23:37:14.123Z,5.30
2019-05-12T23:39:41.636Z,5.40
2019-05-12T23:42:08.876Z,5.20
2019-05-12T23:44:36.141Z,5.20
2019-05-12T23:47:04.263Z,5.10
2019-05-12T23:49:33.686Z,5.20
2019-05-12T23:52:00.964Z,5.20
2019-05-12T23:54:28.257Z,5.10
2019-05-12T23:56:55.517Z,5.00
2019-05-12T23:59:23.997Z,5.00
